createdAt,value
2024-01-20T00:00:00.379Z,29
2024-01-20T00:05:00.117Z,29
2024-01-20T00:20:00.256Z,29
2024-01-20T00:25:00.443Z,29
2024-01-20T00:30:07.196Z,29
2024-01-20T00:35:06.616Z,29
2024-01-20T00:45:00.069Z,29
2024-01-20T00:50:00.071Z,29
2024-01-20T00:55:00.118Z,28
2024-01-20T01:00:00.399Z,28
2024-01-20T01:05:00.013Z,28
2024-01-20T01:09:59.969Z,28
2024-01-20T01:14:59.953Z,27
2024-01-20T01:20:00.423Z,28
2024-01-20T01:24:59.982Z,28
2024-01-20T01:30:00.043Z,28
2024-01-20T01:35:00.038Z,28
2024-01-20T01:39:59.914Z,28
2024-01-20T01:45:00.362Z,28
2024-01-20T01:50:00.537Z,28
2024-01-20T01:55:00.115Z,28
2024-01-20T02:00:00.175Z,28
2024-01-20T02:05:00.304Z,28
2024-01-20T02:10:00.219Z,28
2024-01-20T02:15:00.897Z,27
2024-01-20T02:19:59.962Z,27
2024-01-20T02:25:00.284Z,27
2024-01-20T02:29:59.951Z,27
2024-01-20T02:34:59.982Z,27
2024-01-20T02:40:01.549Z,27
2024-01-20T02:45:00.065Z,27
2024-01-20T02:50:00.240Z,26
2024-01-20T02:55:00.265Z,26
2024-01-20T02:59:59.866Z,26
2024-01-20T03:05:00.069Z,26
2024-01-20T03:09:59.870Z,26
2024-01-20T03:15:00.344Z,26
2024-01-20T03:20:00.013Z,25
2024-01-20T03:24:59.891Z,25
2024-01-20T03:30:00.140Z,25
2024-01-20T03:35:00.161Z,25
2024-01-20T03:40:00.278Z,24
2024-01-20T03:45:00.431Z,24
2024-01-20T03:49:59.856Z,25
2024-01-20T03:54:59.782Z,25
2024-01-20T04:00:00.439Z,24
2024-01-20T04:05:00.180Z,24
2024-01-20T04:10:00.036Z,24
2024-01-20T04:15:00.385Z,23
2024-01-20T04:20:00.092Z,23
2024-01-20T04:24:59.926Z,23
2024-01-20T04:30:00.511Z,23
2024-01-20T04:34:59.930Z,23
2024-01-20T04:40:00.223Z,23
2024-01-20T04:45:00.041Z,23
2024-01-20T04:50:00.297Z,23
2024-01-20T04:54:59.919Z,22
2024-01-20T05:00:00.061Z,22
2024-01-20T05:04:59.869Z,22
2024-01-20T05:09:59.983Z,22
2024-01-20T05:14:59.949Z,22
2024-01-20T05:20:00.156Z,21
2024-01-20T05:24:59.972Z,21
2024-01-20T05:29:59.959Z,21
2024-01-20T05:35:00.078Z,21
2024-01-20T05:39:59.694Z,20
2024-01-20T05:44:59.996Z,21
2024-01-20T05:49:59.924Z,20
2024-01-20T05:54:59.872Z,20
2024-01-20T05:59:59.844Z,20
2024-01-20T06:04:59.951Z,20
2024-01-20T06:09:59.642Z,20
2024-01-20T06:14:59.786Z,20
2024-01-20T06:19:59.882Z,20
2024-01-20T06:25:00.207Z,20
2024-01-20T06:29:59.747Z,20
2024-01-20T06:34:59.874Z,20
2024-01-20T06:39:59.988Z,19
2024-01-20T06:45:01.425Z,19
2024-01-20T06:49:59.909Z,20
2024-01-20T06:55:00.049Z,19
2024-01-20T06:59:59.884Z,20
2024-01-20T07:04:59.640Z,20
2024-01-20T07:09:59.955Z,20
2024-01-20T07:14:59.893Z,20
2024-01-20T07:19:59.736Z,20
2024-01-20T07:24:59.765Z,20
2024-01-20T07:29:59.796Z,20
2024-01-20T07:34:59.835Z,20
2024-01-20T07:39:59.751Z,20
2024-01-20T07:44:59.712Z,20
2024-01-20T07:49:59.759Z,19
2024-01-20T07:54:59.662Z,20
2024-01-20T07:59:59.757Z,21
2024-01-20T08:05:00.139Z,21
2024-01-20T08:09:59.558Z,21
2024-01-20T08:14:59.586Z,21
2024-01-20T08:19:59.713Z,21
2024-01-20T08:24:59.951Z,21
2024-01-20T08:29:59.880Z,21
2024-01-20T08:34:59.594Z,21
2024-01-20T08:39:59.790Z,21
2024-01-20T08:44:59.836Z,22
2024-01-20T08:49:59.738Z,22
2024-01-20T08:54:59.779Z,22
2024-01-20T08:59:59.833Z,21
2024-01-20T09:04:59.814Z,22
2024-01-20T09:09:59.926Z,22
2024-01-20T09:14:59.777Z,23
2024-01-20T09:19:59.836Z,23
2024-01-20T09:24:59.599Z,23
2024-01-20T09:29:59.653Z,24
2024-01-20T09:34:59.771Z,24
2024-01-20T09:39:59.793Z,24
2024-01-20T09:44:59.655Z,24
2024-01-20T09:49:59.544Z,24
2024-01-20T09:54:59.773Z,25
2024-01-20T10:00:00.957Z,24
2024-01-20T10:04:59.635Z,24
2024-01-20T10:09:59.607Z,24
2024-01-20T10:14:59.728Z,24
2024-01-20T10:19:59.643Z,24
2024-01-20T10:25:00.205Z,23
2024-01-20T10:29:59.984Z,23
2024-01-20T10:34:59.540Z,23
2024-01-20T10:39:59.561Z,23
2024-01-20T10:44:59.507Z,22
2024-01-20T10:50:01.359Z,23
2024-01-20T10:54:59.704Z,22
2024-01-20T11:00:00.509Z,22
2024-01-20T11:04:59.423Z,22
2024-01-20T11:09:59.705Z,22
2024-01-20T11:14:59.690Z,22
2024-01-20T11:20:05.751Z,22
2024-01-20T11:24:59.521Z,22
2024-01-20T11:29:59.467Z,22
2024-01-20T11:34:59.726Z,22
2024-01-20T11:39:59.430Z,22
2024-01-20T11:44:59.559Z,22
2024-01-20T11:49:59.610Z,22
2024-01-20T11:54:59.332Z,21
2024-01-20T11:59:59.584Z,21
2024-01-20T12:05:04.531Z,21
2024-01-20T12:09:59.395Z,21
2024-01-20T12:14:59.413Z,21
2024-01-20T12:19:59.692Z,22
2024-01-20T12:24:59.816Z,21
2024-01-20T12:29:59.721Z,21
2024-01-20T12:39:59.601Z,20
2024-01-20T12:44:59.423Z,20
2024-01-20T12:49:59.633Z,19
2024-01-20T12:54:59.401Z,19
2024-01-20T12:59:59.470Z,19
2024-01-20T13:04:59.374Z,18
2024-01-20T13:09:59.539Z,18
2024-01-20T13:15:00.009Z,18
2024-01-20T13:19:59.704Z,18
2024-01-20T13:24:59.262Z,18
2024-01-20T13:30:00.708Z,17
2024-01-20T13:34:59.418Z,17
2024-01-20T13:44:59.636Z,17
2024-01-20T13:49:59.480Z,17
2024-01-20T13:55:00.549Z,16
2024-01-20T13:59:59.282Z,16
2024-01-20T14:05:09.915Z,15
2024-01-20T14:09:59.271Z,15
2024-01-20T14:15:00.586Z,15
2024-01-20T14:20:01.203Z,15
2024-01-20T14:25:04.823Z,15
2024-01-20T14:29:59.648Z,15
2024-01-20T14:34:59.492Z,15
2024-01-20T14:39:59.650Z,14
2024-01-20T14:45:01.600Z,14
2024-01-20T14:50:02.787Z,14
2024-01-20T14:54:59.133Z,14
2024-01-20T14:59:59.391Z,14
2024-01-20T15:05:00.869Z,15
2024-01-20T15:09:59.301Z,14
2024-01-20T15:14:59.230Z,15
2024-01-20T15:19:59.468Z,15
2024-01-20T15:24:59.391Z,14
2024-01-20T15:29:59.208Z,14
2024-01-20T15:45:00.408Z,14
2024-01-20T15:49:59.313Z,13
2024-01-20T15:54:59.491Z,13
2024-01-20T16:00:06.566Z,13
2024-01-20T16:04:59.194Z,13
2024-01-20T16:09:59.075Z,13
2024-01-20T16:19:59.291Z,13
2024-01-20T16:25:20.351Z,12
2024-01-20T16:29:59.483Z,12
2024-01-20T16:35:02.307Z,12
2024-01-20T16:39:59.164Z,12
2024-01-20T16:44:59.402Z,12
2024-01-20T16:49:59.756Z,12
2024-01-20T16:55:13.871Z,12
2024-01-20T16:59:59.319Z,12
2024-01-20T17:04:59.674Z,12
2024-01-20T17:09:59.269Z,13
2024-01-20T17:14:59.254Z,13
2024-01-20T17:19:59.052Z,13
2024-01-20T17:24:59.183Z,13
2024-01-20T17:29:59.405Z,12
2024-01-20T17:34:59.103Z,12
2024-01-20T17:39:59.292Z,12
2024-01-20T17:44:59.089Z,12
2024-01-20T17:49:59.150Z,12
2024-01-20T17:54:59.213Z,13
2024-01-20T17:59:59.211Z,13
2024-01-20T18:04:59.516Z,13
2024-01-20T18:09:59.085Z,13
2024-01-20T18:14:59.222Z,13
2024-01-20T18:19:59.179Z,13
2024-01-20T18:24:59.794Z,13
2024-01-20T18:29:59.110Z,14
2024-01-20T18:34:59.153Z,14
2024-01-20T18:39:58.997Z,14
2024-01-20T18:44:59.193Z,14
2024-01-20T18:49:59.305Z,14
2024-01-20T18:54:59.076Z,13
2024-01-20T18:59:59.236Z,14
2024-01-20T19:04:59.391Z,13
2024-01-20T19:09:59.241Z,14
2024-01-20T19:15:01.449Z,13
2024-01-20T19:19:59.159Z,13
2024-01-20T19:24:59.073Z,13
2024-01-20T19:29:59.109Z,13
2024-01-20T19:34:58.988Z,13
2024-01-20T19:39:59.168Z,13
2024-01-20T19:44:59.196Z,13
2024-01-20T19:49:59.361Z,13
2024-01-20T19:55:00.232Z,13
2024-01-20T19:59:59.577Z,13
2024-01-20T20:04:59.165Z,13
2024-01-20T20:09:59.075Z,14
2024-01-20T20:14:59.405Z,14
2024-01-20T20:19:59.222Z,14
2024-01-20T20:24:58.901Z,14
2024-01-20T20:29:58.856Z,14
2024-01-20T20:34:59.385Z,14
2024-01-20T20:39:59.055Z,15
2024-01-20T20:45:00.449Z,15
2024-01-20T20:49:59.006Z,15
2024-01-20T20:54:59.144Z,15
2024-01-20T20:59:58.974Z,15
2024-01-20T21:04:59.104Z,15
2024-01-20T21:09:59.071Z,16
2024-01-20T21:14:58.834Z,16
2024-01-20T21:19:59.478Z,16
2024-01-20T21:24:59.119Z,16
2024-01-20T21:29:59.126Z,16
2024-01-20T21:34:59.125Z,16
2024-01-20T21:39:58.889Z,17
2024-01-20T21:44:58.795Z,17
2024-01-20T21:49:59.094Z,17
2024-01-20T21:54:59.055Z,17
2024-01-20T21:59:59.116Z,17
2024-01-20T22:04:58.827Z,16
2024-01-20T22:09:58.992Z,16
2024-01-20T22:14:58.853Z,16
2024-01-20T22:19:58.893Z,16
2024-01-20T22:24:58.952Z,16
2024-01-20T22:29:59.059Z,16
2024-01-20T22:34:59.234Z,16
2024-01-20T22:39:59.029Z,16
2024-01-20T22:44:59.014Z,16
2024-01-20T22:49:59.436Z,15
2024-01-20T22:54:59.427Z,15
2024-01-20T22:59:59.032Z,15
2024-01-20T23:04:59.313Z,15
2024-01-20T23:09:58.798Z,15
2024-01-20T23:14:59.091Z,15
2024-01-20T23:19:58.970Z,15
2024-01-20T23:24:58.842Z,15
2024-01-20T23:29:59.134Z,15
2024-01-20T23:34:58.953Z,14
2024-01-20T23:39:58.906Z,14
2024-01-20T23:44:59.010Z,14
2024-01-20T23:49:58.709Z,14
2024-01-20T23:54:58.710Z,13
2024-01-20T23:59:59.213Z,13
